Date,TemperatureHighF,TemperatureAvgF,TemperatureLowF,DewpointHighF,DewpointAvgF,DewpointLowF,HumidityHigh,HumidityAvg,HumidityLow,PressureMaxIn,PressureMinIn,WindSpeedMaxMPH,WindSpeedAvgMPH,GustSpeedMaxMPH,PrecipitationSumIn
2013-11-1,88,76,67,72,67,61,100,78,40,0.00,40.00,10,4,22,0.00
2013-11-2,74,68,60,73,66,60,100,94,87,0.00,40.00,7,3,16,0.45
2013-11-3,75,62,54,60,51,-100,100,71,36,0.00,40.00,11,5,20,0.01
2013-11-4,78,67,56,66,58,52,98,74,41,0.00,40.00,12,6,25,0.03
2013-11-5,83,72,64,68,65,62,100,80,49,0.00,40.00,14,6,23,0.03
2013-11-6,81,70,62,70,66,62,100,89,60,0.00,40.00,8,3,15,0.06
2013-11-7,79,70,64,70,68,64,100,92,63,0.00,40.00,4,2,8,0.01
2013-11-8,76,66,60,66,59,49,100,81,62,0.00,40.00,12,6,23,0.01
2013-11-9,81,65,56,63,57,-100,100,79,50,0.00,40.00,9,4,17,0.00
2013-11-10,81,69,59,66,63,59,100,85,58,0.00,40.00,8,4,14,0.00
2013-11-11,82,68,60,64,62,60,100,84,52,0.00,40.00,8,4,14,0.00
2013-11-12,78,67,60,69,63,56,100,88,62,0.00,40.00,5,2,11,0.01
2013-11-13,65,58,52,56,47,44,79,67,51,0.00,40.00,15,10,28,0.01
2013-11-14,73,59,48,54,51,46,99,77,46,0.00,40.00,11,4,20,0.00
2013-11-15,69,62,53,65,61,53,100,95,81,0.00,40.00,6,2,9,0.15
2013-11-16,75,68,63,71,66,-100,100,96,82,0.00,40.00,6,2,12,0.70
2013-11-17,85,74,67,73,69,67,100,85,55,0.00,40.00,6,2,12,0.03
2013-11-18,81,74,66,71,70,66,100,88,67,0.00,40.00,6,2,12,0.01
2013-11-19,74,69,63,70,62,51,100,80,55,0.00,40.00,10,5,20,0.00
2013-11-20,78,70,63,69,65,61,96,86,69,0.00,40.00,8,4,13,0.00
2013-11-21,76,70,67,70,68,66,99,93,81,0.00,40.00,10,4,20,0.00
2013-11-22,78,71,65,73,67,63,100,88,60,0.00,40.00,7,3,13,0.01
2013-11-23,85,71,62,69,61,-100,100,78,41,0.00,40.00,4,2,9,0.01
2013-11-24,70,63,58,65,55,48,88,75,65,0.00,40.00,15,9,27,0.00
2013-11-25,76,65,59,58,54,49,85,67,44,0.00,40.00,12,6,21,0.00
2013-11-26,82,72,62,72,67,58,100,86,64,0.00,40.00,9,4,19,0.20
2013-11-27,72,61,40,72,54,35,100,80,58,0.00,40.00,12,7,28,0.74
2013-11-28,63,48,33,48,40,30,89,75,55,0.00,40.00,9,5,16,0.12
2013-11-29,69,56,46,57,50,45,100,82,55,0.00,40.00,11,6,20,0.00
2013-11-30,75,62,55,62,57,-100,100,85,60,0.00,40.00,11,6,20,0.00